METAR Data
IDs: Format: Raw Decoded Include TAF

Data at: 2253 UTC 26 Feb 2020

VTUK 262200Z 07003KT 030V120 8000 NSC 21/16 Q1012 NOSIG
VTUK 262100Z 09003KT 050V130 8000 NSC 21/15 Q1012 NOSIG
VTUK 262000Z 09004KT 040V140 9000 NSC 22/14 Q1012 NOSIG
VTUK 261900Z 09003KT 060V120 9000 NSC 23/14 Q1012 NOSIG
VTUK 261800Z 09003KT 040V120 9000 NSC 24/14 Q1012 NOSIG
VTUK 261700Z 07002KT 9000 NSC 25/13 Q1013 NOSIG
VTUK 261600Z 05003KT 9000 NSC 25/13 Q1013 NOSIG
VTUK 261500Z 04004KT 9000 NSC 26/13 Q1013 NOSIG
VTUK 261300Z 12002KT 9000 NSC 27/13 Q1012 NOSIG
VTUK 261200Z 09002KT CAVOK 29/13 Q1011 NOSIG
VTUK 261100Z 12002KT CAVOK 32/13 Q1011 NOSIG
VTUK 261000Z 15004KT 100V240 CAVOK 34/13 Q1011 NOSIG
VTUK 260900Z 11005KT 040V180 CAVOK 34/13 Q1011 NOSIG
VTUK 260800Z VRB03KT 9000 NSC 34/14 Q1011 NOSIG
VTUK 260700Z VRB04KT 9000 NSC 34/15 Q1013 NOSIG
VTUK 260600Z VRB04KT 9000 NSC 32/15 Q1014 NOSIG
VTUK 260500Z 06006KT 330V130 9000 NSC 29/15 Q1015 NOSIG
VTUK 260400Z VRB04KT 9000 NSC 28/15 Q1016 NOSIG
VTUK 260300Z 15004KT 080V200 8000 NSC 27/15 Q1017 NOSIG
VTUK 260200Z 08006KT 040V150 8000 NSC 24/15 Q1016 NOSIG
VTUK 260100Z 08004KT 040V140 7000 NSC 23/14 Q1016 NOSIG
VTUK 260000Z 08003KT 7000 NSC 20/13 Q1015 NOSIG
VTUK 252300Z 04004KT 8000 NSC 20/13 Q1014 NOSIG
VTUK 252200Z 08003KT 040V100 9000 NSC 21/13 Q1013 NOSIG
VTUK 252100Z 10003KT 9000 NSC 22/13 Q1012 NOSIG
VTUK 252000Z 08004KT 040V110 9000 NSC 24/11 Q1012 NOSIG
VTUK 251900Z 00000KT 9000 NSC 21/10 Q1012 NOSIG
VTUK 251800Z 09003KT 050V110 9000 NSC 25/10 Q1013 NOSIG
VTUK 251700Z 08003KT 9000 NSC 25/10 Q1013 NOSIG
VTUK 251600Z 06004KT 9000 NSC 26/11 Q1013 NOSIG
VTUK 251500Z 09003KT 9000 NSC 27/10 Q1013 NOSIG
VTUK 251400Z 08002KT 9000 NSC 27/11 Q1012 NOSIG
VTUK 251300Z 09003KT 9000 NSC 28/11 Q1012 NOSIG
VTUK 251200Z 12003KT 080V150 9000 FEW035 29/12 Q1011 NOSIG
VTUK 251100Z 15003KT 120V180 9000 FEW035 32/12 Q1011 NOSIG

VTUD 262200Z 00000KT CAVOK 18/15 Q1012 NOSIG
VTUD 261500Z 00000KT CAVOK 23/13 Q1013 NOSIG
VTUD 261300Z 11001KT CAVOK 26/13 Q1012 NOSIG
VTUD 261200Z 07004KT CAVOK 29/13 Q1012 NOSIG
VTUD 261100Z 04002KT CAVOK 33/12 Q1012 NOSIG
VTUD 261000Z VRB02KT CAVOK 34/12 Q1011 NOSIG
VTUD 260900Z 11006KT 080V160 CAVOK 34/12 Q1011 NOSIG
VTUD 260800Z VRB03KT CAVOK 34/12 Q1011 NOSIG
VTUD 260700Z 13004KT 060V180 CAVOK 33/13 Q1013 NOSIG
VTUD 260600Z VRB04KT CAVOK 33/13 Q1014 NOSIG
VTUD 260500Z VRB05KT CAVOK 31/13 Q1015 NOSIG
VTUD 260400Z 07005KT 030V120 CAVOK 29/13 Q1016 NOSIG
VTUD 260300Z 02004KT 300V070 CAVOK 26/14 Q1017 NOSIG
VTUD 260200Z 05004KT 9000 NSC 24/14 Q1017 NOSIG
VTUD 260100Z 00000KT 7000 NSC 21/13 Q1016 NOSIG
VTUD 260000Z 00000KT 6000 NSC 18/13 Q1015 NOSIG
VTUD 252300Z 00000KT 7000 NSC 17/13 Q1014 NOSIG
VTUD 252200Z 00000KT 8000 NSC 19/13 Q1013 NOSIG
VTUD 251500Z 12003KT 9000 NSC 23/13 Q1013 NOSIG
VTUD 251400Z 00000KT 9000 NSC 25/12 Q1013 NOSIG
VTUD 251300Z 16001KT 9000 NSC 26/12 Q1012 NOSIG
VTUD 251200Z 00000KT 9000 NSC 28/12 Q1011 NOSIG
VTUD 251100Z 01002KT CAVOK 32/11 Q1011 NOSIG

VTUL 261200Z 06003KT 010V090 7000 NSC 29/12 Q1012 NOSIG
VTUL 261100Z 11004KT 7000 NSC 31/12 Q1012 NOSIG
VTUL 261000Z 12003KT 020V170 8000 NSC 34/11 Q1011 NOSIG
VTUL 260900Z 09005KT 010V160 8000 NSC 35/11 Q1011 NOSIG
VTUL 260800Z VRB04KT 8000 FEW030 34/10 Q1011 NOSIG
VTUL 260700Z VRB05KT 8000 FEW030 34/11 Q1012 NOSIG
VTUL 260600Z VRB04KT 8000 FEW030 33/12 Q1014 NOSIG
VTUL 260500Z VRB05KT 8000 FEW030 31/12 Q1015 NOSIG
VTUL 260400Z VRB04KT 8000 FEW030 30/12 Q1016 NOSIG
VTUL 260300Z VRB03KT 7000 FEW030 27/14 Q1017 NOSIG
VTUL 260200Z VRB01KT 6000 FEW030 23/14 Q1017 NOSIG
VTUL 260100Z 00000KT 6000 FEW030 18/14 Q1016 NOSIG
VTUL 260000Z VRB02KT 7000 FEW030 15/13 Q1016 NOSIG
VTUL 252300Z VRB02KT 9999 FEW030 15/13 Q1014 NOSIG
VTUL 251200Z 00000KT 9999 FEW030 26/13 Q1011 NOSIG
VTUL 251100Z VRB02KT 9999 SCT030 31/13 Q1011 NOSIG

VTUI 262200Z 00000KT 9000 NSC 20/16 Q1013 NOSIG
VTUI 261500Z 12002KT CAVOK 27/16 Q1013 NOSIG
VTUI 261300Z 32002KT CAVOK 23/16 Q1012 NOSIG
VTUI 261200Z 00000KT CAVOK 25/16 Q1012 NOSIG
VTUI 261100Z VRB02KT CAVOK 31/12 Q1011 NOSIG
VTUI 261000Z 15004KT 120V180 CAVOK 33/09 Q1011 NOSIG
VTUI 260900Z 13005KT 080V160 CAVOK 33/10 Q1011 NOSIG
VTUI 260800Z 14007KT 090V170 CAVOK 33/14 Q1011 NOSIG
VTUI 260700Z 17004KT 120V290 CAVOK 32/13 Q1013 NOSIG
VTUI 260600Z 13005KT 060V180 CAVOK 30/14 Q1014 NOSIG
VTUI 260500Z 12007KT 080V170 CAVOK 30/14 Q1015 NOSIG
VTUI 260400Z 13008KT 100V170 CAVOK 28/16 Q1016 NOSIG
VTUI 260300Z 13008KT 090V160 CAVOK 26/16 Q1017 NOSIG
VTUI 260200Z 13007KT 090V160 CAVOK 24/16 Q1017 NOSIG
VTUI 260100Z 15006KT 120V180 CAVOK 22/15 Q1016 NOSIG
VTUI 260000Z 16003KT 110V200 CAVOK 20/15 Q1016 NOSIG
VTUI 252300Z 15005KT CAVOK 20/15 Q1015 NOSIG
VTUI 251500Z 11007KT CAVOK 27/14 Q1013 NOSIG
VTUI 251400Z 00000KT CAVOK 23/15 Q1013 NOSIG
VTUI 251300Z VRB01KT CAVOK 25/15 Q1012 NOSIG
VTUI 251200Z VRB02KT CAVOK 26/15 Q1011 NOSIG
VTUI 251100Z 00000KT CAVOK 30/13 Q1011 NOSIG

VTUW 261300Z 12008KT CAVOK 27/14 Q1013 NOSIG
VTUW 261200Z 12006KT CAVOK 29/12 Q1012 NOSIG
VTUW 261100Z 12006KT CAVOK 31/09 Q1012 NOSIG
VTUW 261000Z 08006KT 360V130 CAVOK 33/08 Q1011 NOSIG
VTUW 260900Z 07006KT 020V150 CAVOK 34/07 Q1011 NOSIG
VTUW 260800Z 13007KT 060V180 CAVOK 34/06 Q1012 NOSIG
VTUW 260700Z VRB06KT CAVOK 32/07 Q1013 NOSIG
VTUW 260600Z VRB06KT CAVOK 32/09 Q1014 NOSIG
VTUW 260500Z 14006KT 040V200 CAVOK 30/13 Q1015 NOSIG
VTUW 260400Z VRB04KT CAVOK 30/13 Q1016 NOSIG
VTUW 260300Z 11006KT 040V160 CAVOK 28/14 Q1017 NOSIG
VTUW 260200Z 11008KT 060V140 CAVOK 26/14 Q1017 NOSIG
VTUW 260100Z 11003KT CAVOK 22/15 Q1017 NOSIG
VTUW 251300Z 09005KT CAVOK 27/10 Q1012 NOSIG
VTUW 251200Z 13004KT CAVOK 29/09 Q1012 NOSIG
VTUW 251100Z 12003KT CAVOK 31/10 Q1011 NOSIG